^^

Nearby METAR Reports

METAR (Meteorological Aerodrome Report) are Airport generated local weather condition reports for use, predominantly by pilots, these reports are also used as part of compliment of data sets required for Chatteris Weathers prediction software - WxSim.

EGUN - Mildenhall Raf, United Kingdom
Distance from station: ESE 19mi, 31km
Updated: 19/09/2018 23:01
Mostly cloudy
Mostly cloudy
 Wind from WSW
Wind: WSW 14 mph , 22 km/h
Temperature: 15°C
Dew Point: 15°C
Humidity: 100%
Barometer: 1012.9 hPa
Clouds: Mostly cloudy
Visibility: 6 miles , 10 km
Cloud details: Mostly cloudy 853 m
2018/09/19 22:01 EGUN 192201Z AUTO 24012KT 9999 BKN028 15/15 A2991 RMK AO2 SLP132
EGSC - Cambridge, United Kingdom
Distance from station: SSE 20mi, 32km
Updated: 19/09/2018 17:50
NOT Current
Mostly cloudy
Mostly cloudy
 Wind from SW
Wind: SW 16 mph , 26 km/h
Temperature: 22°C
Dew Point: 13°C
Humidity: 57%
Barometer: 1010 hPa
Clouds: Mostly cloudy
Visibility: 6 miles , 10 km
Cloud details: Mostly cloudy 1219 m
2018/09/19 16:50 EGSC 191650Z 22014KT 190V250 9999 BKN040 22/13 Q1010
 
EGUL - Lakenheath Raf, United Kingdom
Distance from station: E 22mi, 36km
Updated: 19/09/2018 22:56
Mostly cloudy
Mostly cloudy
 Wind from SW
Wind: SW 15 mph , 24 km/h
Temperature: 16°C
Dew Point: 13°C
Humidity: 83%
Barometer: 1012.9 hPa
Clouds: Mostly cloudy
Visibility: 6 miles , 10 km
Cloud details: Few Clouds 488 m
Mostly cloudy 853 m
2018/09/19 21:56 EGUL 192156Z AUTO 23013KT 9999 FEW016 BKN028 16/13 A2991 RMK AO2 DZB37E46 SLP132 P0000 T01560133 $
EGXT - Wittering Raf, United Kingdom
Distance from station: WNW 24mi, 38km
Updated: 19/09/2018 22:50
Light rain, Drizzle, Mostly cloudy
Light rain, Drizzle, Mostly cloudy
 Wind from WSW
Wind: WSW 14 mph , 22 km/h
Temperature: 14°C
Dew Point: 6°C
Humidity: 59%
Barometer: 1012 hPa
Summary: Light rain, Drizzle
Clouds: Mostly cloudy
Visibility: 6 miles , 10 km
Cloud details: Mostly cloudy 1189 m
Mostly cloudy 1829 m
2018/09/19 21:50 EGXT 192150Z AUTO 24012KT 9999 -RADZ BKN039/// BKN060/// 14/06 Q1012
 
EGYH - Holbeach (aut), United Kingdom
Distance from station: N 27mi, 44km
Updated: 19/09/2018 15:50
NOT Current
Mostly cloudy
Mostly cloudy
 Wind from WSW
Wind: WSW 25 mph , 41 km/h, Gust: 47 mph , 76 km/h
Temperature: 22°C
Dew Point: 12°C
Humidity: 53%
Barometer: 1007 hPa
Clouds: Mostly cloudy
Visibility: 6 miles , 10 km
Cloud details: Mostly cloudy 1219 m
2018/09/19 14:50 EGYH 191450Z 24022G41KT 9999 BKN040 22/12 Q1007 BLU
EGSS - Stansted Airport, United Kingdom
Distance from station: SE 11mi, 18km
Updated: 19/09/2018 23:20
Overcast
Overcast
 Wind from SW
Wind: SW 9 mph , 15 km/h
Temperature: 16°C
Dew Point: 14°C
Humidity: 88%
Barometer: 1014 hPa
Clouds: Overcast
Visibility: 6 miles , 10 km
Cloud details: Overcast 427 m
2018/09/19 22:20 EGSS 192220Z AUTO 23008KT 9999 OVC014 16/14 Q1014
 
EGGW - Luton Airport, United Kingdom
Distance from station: WSW 19mi, 31km
Updated: 19/09/2018 23:20
Light drizzle, Overcast
Light drizzle, Overcast
 Wind from SW
Wind: SW 9 mph , 15 km/h
Temperature: 15°C
Dew Point: 14°C
Humidity: 94%
Barometer: 1013 hPa
Summary: Light Drizzle
Clouds: Overcast
Visibility: 2 miles , 4 km
Cloud details: Mostly cloudy 122 m
Mostly cloudy 213 m
Overcast 427 m
2018/09/19 22:20 EGGW 192220Z AUTO 22008KT 3600 -DZ BKN004 BKN007 OVC014 15/14 Q1013 REDZ
EGLL - London/Heathrow, United Kingdom
Distance from station: SSW 41mi, 66km
Updated: 19/09/2018 23:20
Mostly cloudy
Mostly cloudy
 Wind from WSW
Wind: WSW 12 mph , 19 km/h
Temperature: 16°C
Dew Point: 14°C
Humidity: 88%
Barometer: 1014 hPa
Clouds: Mostly cloudy
Visibility: 6 miles , 10 km
Cloud details: Mostly cloudy 549 m
2018/09/19 22:20 EGLL 192220Z AUTO 25010KT 9999 BKN018 16/14 Q1014
 
EGKK - London/Gatwick A, United Kingdom
Distance from station: S 60mi, 97km
Updated: 19/09/2018 23:20
Mostly cloudy
Mostly cloudy
 Wind from SSW
Wind: SSW 7 mph , 11 km/h
Temperature: 17°C
Dew Point: 16°C
Humidity: 94%
Barometer: 1015 hPa
Clouds: Mostly cloudy
Visibility: 6 miles , 10 km
Cloud details: Mostly cloudy 335 m
Mostly cloudy 366 m
2018/09/19 22:20 EGKK 192220Z 20006KT 170V240 9999 BKN011 BKN012 17/16 Q1015
EGUY - Wyton Raf, United Kingdom
Distance from station: SW 11mi, 18km
Updated: 04/10/2015 09:50
NOT Current
Haze, Clear
Haze, Clear
 Wind from SSE
Wind: SSE 2 mph , 4 km/h
Temperature: 11°C
Dew Point: 7°C
Humidity: 77%
Barometer: 1014 hPa
Summary: Haze
Clouds: Clear
Visibility: 4 miles , 6 km
2015/10/04 08:50 EGUY 040850Z 15002KT 6000 HZ SKC 11/07 Q1014 WHT

Met Office METAR data link, decoding METAR data code.